sensor_id;sensor_type;location;lat;lon;timestamp;P1;durP1;ratioP1;P2;durP2;ratioP2
11303;SDS011;5707;49.588;12.148;2023-05-17T00:00:31;2.70;;;1.27;;
11303;SDS011;5707;49.588;12.148;2023-05-17T00:02:57;2.97;;;1.30;;
11303;SDS011;5707;49.588;12.148;2023-05-17T00:05:22;1.83;;;1.40;;
11303;SDS011;5707;49.588;12.148;2023-05-17T00:07:48;2.78;;;0.95;;
11303;SDS011;5707;49.588;12.148;2023-05-17T00:10:14;2.35;;;1.17;;
11303;SDS011;5707;49.588;12.148;2023-05-17T00:12:39;4.65;;;1.30;;
11303;SDS011;5707;49.588;12.148;2023-05-17T00:15:05;1.77;;;1.30;;
11303;SDS011;5707;49.588;12.148;2023-05-17T00:17:31;1.90;;;1.15;;
11303;SDS011;5707;49.588;12.148;2023-05-17T00:19:57;4.85;;;1.20;;
11303;SDS011;5707;49.588;12.148;2023-05-17T00:22:22;3.42;;;1.50;;
11303;SDS011;5707;49.588;12.148;2023-05-17T00:24:48;1.88;;;1.17;;
11303;SDS011;5707;49.588;12.148;2023-05-17T00:27:13;3.08;;;1.17;;
11303;SDS011;5707;49.588;12.148;2023-05-17T00:29:39;2.35;;;1.00;;
11303;SDS011;5707;49.588;12.148;2023-05-17T00:32:04;1.80;;;1.10;;
11303;SDS011;5707;49.588;12.148;2023-05-17T00:34:30;1.40;;;1.23;;
11303;SDS011;5707;49.588;12.148;2023-05-17T00:36:56;2.17;;;1.23;;
11303;SDS011;5707;49.588;12.148;2023-05-17T00:39:21;2.05;;;1.13;;
11303;SDS011;5707;49.588;12.148;2023-05-17T00:41:47;1.25;;;1.15;;
11303;SDS011;5707;49.588;12.148;2023-05-17T00:44:12;2.17;;;1.20;;
11303;SDS011;5707;49.588;12.148;2023-05-17T00:46:38;2.17;;;1.38;;
11303;SDS011;5707;49.588;12.148;2023-05-17T00:49:03;2.65;;;1.05;;
11303;SDS011;5707;49.588;12.148;2023-05-17T00:51:29;2.42;;;1.15;;
11303;SDS011;5707;49.588;12.148;2023-05-17T00:53:55;6.37;;;1.00;;
11303;SDS011;5707;49.588;12.148;2023-05-17T00:56:22;3.15;;;0.95;;
11303;SDS011;5707;49.588;12.148;2023-05-17T00:58:48;3.13;;;0.90;;
11303;SDS011;5707;49.588;12.148;2023-05-17T01:01:14;3.25;;;1.15;;
11303;SDS011;5707;49.588;12.148;2023-05-17T01:03:39;1.55;;;0.98;;
11303;SDS011;5707;49.588;12.148;2023-05-17T01:06:05;1.70;;;0.90;;
11303;SDS011;5707;49.588;12.148;2023-05-17T01:08:31;2.05;;;1.00;;
11303;SDS011;5707;49.588;12.148;2023-05-17T01:11:00;2.08;;;0.90;;
11303;SDS011;5707;49.588;12.148;2023-05-17T01:13:37;1.88;;;0.93;;
11303;SDS011;5707;49.588;12.148;2023-05-17T01:16:27;1.80;;;0.77;;
11303;SDS011;5707;49.588;12.148;2023-05-17T01:24:26;1.75;;;1.00;;
11303;SDS011;5707;49.588;12.148;2023-05-17T01:26:57;2.55;;;1.05;;
11303;SDS011;5707;49.588;12.148;2023-05-17T01:29:25;2.50;;;0.90;;
11303;SDS011;5707;49.588;12.148;2023-05-17T01:31:53;2.60;;;0.77;;
11303;SDS011;5707;49.588;12.148;2023-05-17T01:34:24;1.98;;;0.80;;
11303;SDS011;5707;49.588;12.148;2023-05-17T01:36:51;2.03;;;0.98;;
11303;SDS011;5707;49.588;12.148;2023-05-17T01:39:16;1.70;;;0.98;;
11303;SDS011;5707;49.588;12.148;2023-05-17T01:41:42;1.88;;;0.93;;
11303;SDS011;5707;49.588;12.148;2023-05-17T01:44:50;1.83;;;0.80;;
11303;SDS011;5707;49.588;12.148;2023-05-17T01:50:15;1.42;;;0.95;;
11303;SDS011;5707;49.588;12.148;2023-05-17T01:52:48;2.28;;;1.02;;
11303;SDS011;5707;49.588;12.148;2023-05-17T01:57:42;3.17;;;0.93;;
11303;SDS011;5707;49.588;12.148;2023-05-17T02:00:12;1.25;;;0.90;;
11303;SDS011;5707;49.588;12.148;2023-05-17T02:02:39;2.58;;;1.10;;
11303;SDS011;5707;49.588;12.148;2023-05-17T02:05:05;1.38;;;0.80;;
11303;SDS011;5707;49.588;12.148;2023-05-17T02:07:30;1.17;;;0.70;;
11303;SDS011;5707;49.588;12.148;2023-05-17T02:09:56;1.02;;;0.88;;
11303;SDS011;5707;49.588;12.148;2023-05-17T02:12:22;1.90;;;0.90;;
11303;SDS011;5707;49.588;12.148;2023-05-17T02:14:47;1.67;;;0.80;;
11303;SDS011;5707;49.588;12.148;2023-05-17T02:17:13;1.85;;;0.88;;
11303;SDS011;5707;49.588;12.148;2023-05-17T02:19:38;2.90;;;1.10;;
11303;SDS011;5707;49.588;12.148;2023-05-17T02:22:04;2.83;;;1.20;;
11303;SDS011;5707;49.588;12.148;2023-05-17T02:24:29;1.83;;;0.90;;
11303;SDS011;5707;49.588;12.148;2023-05-17T02:26:55;1.75;;;0.77;;
11303;SDS011;5707;49.588;12.148;2023-05-17T02:29:20;4.82;;;1.08;;
11303;SDS011;5707;49.588;12.148;2023-05-17T02:31:46;1.35;;;0.68;;
11303;SDS011;5707;49.588;12.148;2023-05-17T02:34:12;1.55;;;0.80;;
11303;SDS011;5707;49.588;12.148;2023-05-17T02:36:37;1.77;;;0.75;;
11303;SDS011;5707;49.588;12.148;2023-05-17T02:39:04;1.70;;;0.88;;
11303;SDS011;5707;49.588;12.148;2023-05-17T02:41:30;1.10;;;0.60;;
11303;SDS011;5707;49.588;12.148;2023-05-17T02:43:56;2.22;;;1.10;;
11303;SDS011;5707;49.588;12.148;2023-05-17T02:46:21;1.30;;;0.63;;
11303;SDS011;5707;49.588;12.148;2023-05-17T02:48:47;2.72;;;0.50;;
11303;SDS011;5707;49.588;12.148;2023-05-17T02:51:12;1.10;;;0.63;;
11303;SDS011;5707;49.588;12.148;2023-05-17T02:53:38;1.83;;;0.85;;
11303;SDS011;5707;49.588;12.148;2023-05-17T02:56:03;1.90;;;0.90;;
11303;SDS011;5707;49.588;12.148;2023-05-17T02:58:29;3.70;;;0.77;;
11303;SDS011;5707;49.588;12.148;2023-05-17T03:00:55;1.50;;;0.77;;
11303;SDS011;5707;49.588;12.148;2023-05-17T03:03:20;2.70;;;0.70;;
11303;SDS011;5707;49.588;12.148;2023-05-17T03:05:46;2.25;;;0.68;;
11303;SDS011;5707;49.588;12.148;2023-05-17T03:08:12;2.08;;;0.57;;
11303;SDS011;5707;49.588;12.148;2023-05-17T03:10:37;1.90;;;1.13;;
11303;SDS011;5707;49.588;12.148;2023-05-17T03:13:03;1.33;;;1.10;;
11303;SDS011;5707;49.588;12.148;2023-05-17T03:15:28;7.90;;;1.25;;
11303;SDS011;5707;49.588;12.148;2023-05-17T03:17:54;2.50;;;0.70;;
11303;SDS011;5707;49.588;12.148;2023-05-17T03:20:20;2.38;;;0.90;;
11303;SDS011;5707;49.588;12.148;2023-05-17T03:22:46;1.75;;;0.80;;
11303;SDS011;5707;49.588;12.148;2023-05-17T03:25:12;1.92;;;0.90;;
11303;SDS011;5707;49.588;12.148;2023-05-17T03:27:37;2.25;;;0.80;;
11303;SDS011;5707;49.588;12.148;2023-05-17T03:30:03;1.52;;;0.60;;
11303;SDS011;5707;49.588;12.148;2023-05-17T03:32:29;2.97;;;0.82;;
11303;SDS011;5707;49.588;12.148;2023-05-17T03:34:55;1.73;;;1.08;;
11303;SDS011;5707;49.588;12.148;2023-05-17T03:37:20;1.95;;;1.13;;
11303;SDS011;5707;49.588;12.148;2023-05-17T03:39:46;3.15;;;1.88;;
11303;SDS011;5707;49.588;12.148;2023-05-17T03:42:12;14.20;;;4.57;;
11303;SDS011;5707;49.588;12.148;2023-05-17T03:44:38;4.40;;;2.20;;
11303;SDS011;5707;49.588;12.148;2023-05-17T03:47:04;4.22;;;1.70;;
11303;SDS011;5707;49.588;12.148;2023-05-17T03:49:30;2.25;;;1.45;;
11303;SDS011;5707;49.588;12.148;2023-05-17T03:51:57;1.08;;;0.82;;
11303;SDS011;5707;49.588;12.148;2023-05-17T03:54:23;1.30;;;0.55;;
11303;SDS011;5707;49.588;12.148;2023-05-17T03:56:48;0.70;;;0.68;;
11303;SDS011;5707;49.588;12.148;2023-05-17T03:59:14;2.15;;;0.60;;
11303;SDS011;5707;49.588;12.148;2023-05-17T04:01:41;2.80;;;0.80;;
11303;SDS011;5707;49.588;12.148;2023-05-17T04:04:07;3.92;;;0.85;;
11303;SDS011;5707;49.588;12.148;2023-05-17T04:06:33;2.05;;;0.80;;
11303;SDS011;5707;49.588;12.148;2023-05-17T04:08:59;1.95;;;0.77;;
11303;SDS011;5707;49.588;12.148;2023-05-17T04:11:25;1.25;;;0.80;;
11303;SDS011;5707;49.588;12.148;2023-05-17T04:13:51;2.50;;;0.90;;
11303;SDS011;5707;49.588;12.148;2023-05-17T04:16:18;0.93;;;0.63;;
11303;SDS011;5707;49.588;12.148;2023-05-17T04:18:44;3.35;;;0.98;;
11303;SDS011;5707;49.588;12.148;2023-05-17T04:21:09;2.15;;;0.77;;
11303;SDS011;5707;49.588;12.148;2023-05-17T04:23:35;3.03;;;0.90;;
11303;SDS011;5707;49.588;12.148;2023-05-17T04:26:02;3.55;;;0.70;;
11303;SDS011;5707;49.588;12.148;2023-05-17T04:28:28;2.72;;;1.20;;
11303;SDS011;5707;49.588;12.148;2023-05-17T04:30:54;2.38;;;1.00;;
11303;SDS011;5707;49.588;12.148;2023-05-17T04:33:20;1.77;;;0.75;;
11303;SDS011;5707;49.588;12.148;2023-05-17T04:35:46;1.58;;;0.90;;
11303;SDS011;5707;49.588;12.148;2023-05-17T04:38:11;2.00;;;0.93;;
11303;SDS011;5707;49.588;12.148;2023-05-17T04:40:37;2.30;;;0.98;;
11303;SDS011;5707;49.588;12.148;2023-05-17T04:43:03;1.13;;;0.60;;
11303;SDS011;5707;49.588;12.148;2023-05-17T04:45:28;1.73;;;0.63;;
11303;SDS011;5707;49.588;12.148;2023-05-17T04:47:54;3.45;;;1.10;;
11303;SDS011;5707;49.588;12.148;2023-05-17T04:50:20;1.13;;;0.73;;
11303;SDS011;5707;49.588;12.148;2023-05-17T04:52:46;2.35;;;0.88;;
11303;SDS011;5707;49.588;12.148;2023-05-17T04:55:11;2.47;;;1.15;;
11303;SDS011;5707;49.588;12.148;2023-05-17T04:57:37;3.38;;;1.20;;
11303;SDS011;5707;49.588;12.148;2023-05-17T05:00:03;2.35;;;1.10;;
11303;SDS011;5707;49.588;12.148;2023-05-17T05:02:30;1.15;;;1.05;;
11303;SDS011;5707;49.588;12.148;2023-05-17T05:04:56;1.95;;;0.90;;
11303;SDS011;5707;49.588;12.148;2023-05-17T05:07:22;2.60;;;1.02;;
11303;SDS011;5707;49.588;12.148;2023-05-17T05:09:47;2.72;;;1.45;;
11303;SDS011;5707;49.588;12.148;2023-05-17T05:12:13;2.10;;;1.10;;
11303;SDS011;5707;49.588;12.148;2023-05-17T05:14:39;2.30;;;1.10;;
11303;SDS011;5707;49.588;12.148;2023-05-17T05:17:04;2.72;;;1.30;;
11303;SDS011;5707;49.588;12.148;2023-05-17T05:19:30;3.55;;;1.50;;
11303;SDS011;5707;49.588;12.148;2023-05-17T05:21:55;3.63;;;1.48;;
11303;SDS011;5707;49.588;12.148;2023-05-17T05:24:21;3.58;;;1.20;;
11303;SDS011;5707;49.588;12.148;2023-05-17T05:26:46;5.38;;;1.45;;
11303;SDS011;5707;49.588;12.148;2023-05-17T05:29:12;2.30;;;1.45;;
11303;SDS011;5707;49.588;12.148;2023-05-17T05:31:37;3.65;;;1.17;;
11303;SDS011;5707;49.588;12.148;2023-05-17T05:34:03;2.13;;;1.33;;
11303;SDS011;5707;49.588;12.148;2023-05-17T05:36:29;2.13;;;1.23;;
11303;SDS011;5707;49.588;12.148;2023-05-17T05:38:54;4.03;;;1.65;;
11303;SDS011;5707;49.588;12.148;2023-05-17T05:41:20;6.35;;;1.70;;
11303;SDS011;5707;49.588;12.148;2023-05-17T05:43:46;2.35;;;1.50;;
11303;SDS011;5707;49.588;12.148;2023-05-17T05:46:11;3.65;;;2.17;;
11303;SDS011;5707;49.588;12.148;2023-05-17T05:48:37;3.53;;;1.77;;
11303;SDS011;5707;49.588;12.148;2023-05-17T05:51:05;6.65;;;2.17;;
11303;SDS011;5707;49.588;12.148;2023-05-17T05:53:31;2.67;;;1.55;;
11303;SDS011;5707;49.588;12.148;2023-05-17T05:55:57;3.22;;;2.13;;
11303;SDS011;5707;49.588;12.148;2023-05-17T05:58:22;7.13;;;2.22;;
11303;SDS011;5707;49.588;12.148;2023-05-17T06:00:48;3.13;;;2.30;;
11303;SDS011;5707;49.588;12.148;2023-05-17T06:03:13;5.07;;;2.38;;
11303;SDS011;5707;49.588;12.148;2023-05-17T06:05:39;5.07;;;2.63;;
11303;SDS011;5707;49.588;12.148;2023-05-17T06:08:05;4.72;;;2.30;;
11303;SDS011;5707;49.588;12.148;2023-05-17T06:10:30;5.30;;;2.28;;
11303;SDS011;5707;49.588;12.148;2023-05-17T06:12:56;9.48;;;2.78;;
11303;SDS011;5707;49.588;12.148;2023-05-17T06:15:22;6.20;;;2.60;;
11303;SDS011;5707;49.588;12.148;2023-05-17T06:17:48;4.85;;;2.42;;
11303;SDS011;5707;49.588;12.148;2023-05-17T06:20:13;5.18;;;2.40;;
11303;SDS011;5707;49.588;12.148;2023-05-17T06:22:41;3.65;;;2.40;;
11303;SDS011;5707;49.588;12.148;2023-05-17T06:25:07;4.07;;;2.30;;
11303;SDS011;5707;49.588;12.148;2023-05-17T06:27:34;5.35;;;2.35;;
11303;SDS011;5707;49.588;12.148;2023-05-17T06:30:00;5.30;;;2.53;;
11303;SDS011;5707;49.588;12.148;2023-05-17T06:32:26;6.22;;;3.20;;
11303;SDS011;5707;49.588;12.148;2023-05-17T06:34:51;5.15;;;2.65;;
11303;SDS011;5707;49.588;12.148;2023-05-17T06:37:17;5.55;;;2.97;;
11303;SDS011;5707;49.588;12.148;2023-05-17T06:39:42;4.72;;;2.80;;
11303;SDS011;5707;49.588;12.148;2023-05-17T06:42:08;6.53;;;2.90;;
11303;SDS011;5707;49.588;12.148;2023-05-17T06:44:34;6.00;;;3.33;;
11303;SDS011;5707;49.588;12.148;2023-05-17T06:46:59;6.13;;;3.40;;
11303;SDS011;5707;49.588;12.148;2023-05-17T06:49:25;4.78;;;2.90;;
11303;SDS011;5707;49.588;12.148;2023-05-17T06:51:50;4.00;;;2.67;;
11303;SDS011;5707;49.588;12.148;2023-05-17T06:54:18;4.25;;;3.00;;
11303;SDS011;5707;49.588;12.148;2023-05-17T06:56:44;5.47;;;2.80;;
11303;SDS011;5707;49.588;12.148;2023-05-17T06:59:10;7.78;;;2.88;;
11303;SDS011;5707;49.588;12.148;2023-05-17T07:01:35;3.50;;;3.20;;
11303;SDS011;5707;49.588;12.148;2023-05-17T07:04:01;5.88;;;2.70;;
11303;SDS011;5707;49.588;12.148;2023-05-17T07:06:26;4.03;;;2.97;;
11303;SDS011;5707;49.588;12.148;2023-05-17T07:08:52;4.13;;;2.45;;
11303;SDS011;5707;49.588;12.148;2023-05-17T07:11:18;4.70;;;2.78;;
11303;SDS011;5707;49.588;12.148;2023-05-17T07:13:43;3.10;;;2.58;;
11303;SDS011;5707;49.588;12.148;2023-05-17T07:16:09;6.28;;;2.72;;
11303;SDS011;5707;49.588;12.148;2023-05-17T07:18:35;5.88;;;3.50;;
11303;SDS011;5707;49.588;12.148;2023-05-17T07:21:00;3.45;;;2.28;;
11303;SDS011;5707;49.588;12.148;2023-05-17T07:23:26;5.50;;;2.83;;
11303;SDS011;5707;49.588;12.148;2023-05-17T07:25:51;6.38;;;2.78;;
11303;SDS011;5707;49.588;12.148;2023-05-17T07:28:17;3.95;;;2.63;;
11303;SDS011;5707;49.588;12.148;2023-05-17T07:30:42;7.03;;;2.95;;
11303;SDS011;5707;49.588;12.148;2023-05-17T07:33:08;3.88;;;2.65;;
11303;SDS011;5707;49.588;12.148;2023-05-17T07:35:33;5.30;;;2.95;;
11303;SDS011;5707;49.588;12.148;2023-05-17T07:37:59;3.95;;;2.88;;
11303;SDS011;5707;49.588;12.148;2023-05-17T07:40:25;3.70;;;2.75;;
11303;SDS011;5707;49.588;12.148;2023-05-17T07:42:50;4.97;;;3.40;;
11303;SDS011;5707;49.588;12.148;2023-05-17T07:45:17;6.03;;;3.03;;
11303;SDS011;5707;49.588;12.148;2023-05-17T07:47:42;4.57;;;3.10;;
11303;SDS011;5707;49.588;12.148;2023-05-17T07:50:08;5.70;;;2.90;;
11303;SDS011;5707;49.588;12.148;2023-05-17T07:52:34;4.00;;;2.63;;
11303;SDS011;5707;49.588;12.148;2023-05-17T07:54:59;3.58;;;2.80;;
11303;SDS011;5707;49.588;12.148;2023-05-17T07:57:25;4.72;;;2.90;;
11303;SDS011;5707;49.588;12.148;2023-05-17T07:59:51;3.30;;;2.38;;
11303;SDS011;5707;49.588;12.148;2023-05-17T08:02:18;3.15;;;2.63;;
11303;SDS011;5707;49.588;12.148;2023-05-17T08:04:43;5.18;;;2.60;;
11303;SDS011;5707;49.588;12.148;2023-05-17T08:07:09;3.75;;;2.60;;
11303;SDS011;5707;49.588;12.148;2023-05-17T08:09:34;4.80;;;2.72;;
11303;SDS011;5707;49.588;12.148;2023-05-17T08:12:00;3.30;;;2.38;;
11303;SDS011;5707;49.588;12.148;2023-05-17T08:14:25;5.63;;;2.50;;
11303;SDS011;5707;49.588;12.148;2023-05-17T08:16:51;2.97;;;2.65;;
11303;SDS011;5707;49.588;12.148;2023-05-17T08:19:17;5.07;;;2.20;;
11303;SDS011;5707;49.588;12.148;2023-05-17T08:21:42;3.80;;;2.60;;
11303;SDS011;5707;49.588;12.148;2023-05-17T08:24:10;4.35;;;2.58;;
11303;SDS011;5707;49.588;12.148;2023-05-17T08:26:36;5.35;;;2.50;;
11303;SDS011;5707;49.588;12.148;2023-05-17T08:29:02;3.50;;;2.55;;
11303;SDS011;5707;49.588;12.148;2023-05-17T08:31:28;4.47;;;2.90;;
11303;SDS011;5707;49.588;12.148;2023-05-17T08:33:55;4.35;;;2.25;;
11303;SDS011;5707;49.588;12.148;2023-05-17T08:36:20;9.30;;;2.60;;
11303;SDS011;5707;49.588;12.148;2023-05-17T08:38:46;3.08;;;2.17;;
11303;SDS011;5707;49.588;12.148;2023-05-17T08:41:12;4.15;;;2.35;;
11303;SDS011;5707;49.588;12.148;2023-05-17T08:43:38;3.05;;;2.42;;
11303;SDS011;5707;49.588;12.148;2023-05-17T08:46:04;3.35;;;2.22;;
11303;SDS011;5707;49.588;12.148;2023-05-17T08:48:30;5.10;;;2.50;;
11303;SDS011;5707;49.588;12.148;2023-05-17T08:50:56;2.88;;;2.00;;
11303;SDS011;5707;49.588;12.148;2023-05-17T08:53:22;3.40;;;2.00;;
11303;SDS011;5707;49.588;12.148;2023-05-17T08:55:49;3.22;;;2.17;;
11303;SDS011;5707;49.588;12.148;2023-05-17T08:58:18;4.13;;;2.40;;
11303;SDS011;5707;49.588;12.148;2023-05-17T09:00:45;5.25;;;2.30;;
11303;SDS011;5707;49.588;12.148;2023-05-17T09:03:14;6.28;;;2.25;;
11303;SDS011;5707;49.588;12.148;2023-05-17T09:05:42;5.15;;;2.60;;
11303;SDS011;5707;49.588;12.148;2023-05-17T09:08:09;5.30;;;2.85;;
11303;SDS011;5707;49.588;12.148;2023-05-17T09:10:38;5.85;;;2.67;;
11303;SDS011;5707;49.588;12.148;2023-05-17T09:13:07;3.95;;;2.70;;
11303;SDS011;5707;49.588;12.148;2023-05-17T09:15:35;4.93;;;2.33;;
11303;SDS011;5707;49.588;12.148;2023-05-17T09:18:01;2.65;;;2.20;;
11303;SDS011;5707;49.588;12.148;2023-05-17T09:20:28;6.32;;;2.70;;
11303;SDS011;5707;49.588;12.148;2023-05-17T09:23:00;3.28;;;2.00;;
11303;SDS011;5707;49.588;12.148;2023-05-17T09:25:27;3.40;;;2.35;;
11303;SDS011;5707;49.588;12.148;2023-05-17T09:27:54;5.15;;;2.00;;
11303;SDS011;5707;49.588;12.148;2023-05-17T09:30:30;3.47;;;2.30;;
11303;SDS011;5707;49.588;12.148;2023-05-17T09:32:57;3.03;;;2.17;;
11303;SDS011;5707;49.588;12.148;2023-05-17T09:35:33;3.03;;;2.33;;
11303;SDS011;5707;49.588;12.148;2023-05-17T09:40:28;3.78;;;2.60;;
11303;SDS011;5707;49.588;12.148;2023-05-17T09:42:53;4.60;;;2.58;;
11303;SDS011;5707;49.588;12.148;2023-05-17T09:45:22;4.13;;;2.80;;
11303;SDS011;5707;49.588;12.148;2023-05-17T09:47:48;5.55;;;3.05;;
11303;SDS011;5707;49.588;12.148;2023-05-17T09:50:18;5.03;;;2.88;;
11303;SDS011;5707;49.588;12.148;2023-05-17T09:52:44;4.97;;;2.85;;
11303;SDS011;5707;49.588;12.148;2023-05-17T09:55:10;3.85;;;2.55;;
11303;SDS011;5707;49.588;12.148;2023-05-17T09:57:37;2.20;;;1.92;;
11303;SDS011;5707;49.588;12.148;2023-05-17T10:00:04;6.95;;;2.28;;
11303;SDS011;5707;49.588;12.148;2023-05-17T10:02:37;4.45;;;2.72;;
11303;SDS011;5707;49.588;12.148;2023-05-17T10:05:05;4.55;;;2.35;;
11303;SDS011;5707;49.588;12.148;2023-05-17T10:07:34;4.32;;;2.00;;
11303;SDS011;5707;49.588;12.148;2023-05-17T10:10:01;4.60;;;2.40;;
11303;SDS011;5707;49.588;12.148;2023-05-17T10:12:28;3.03;;;1.98;;
11303;SDS011;5707;49.588;12.148;2023-05-17T10:14:57;3.38;;;1.90;;
11303;SDS011;5707;49.588;12.148;2023-05-17T10:17:25;5.35;;;1.95;;
11303;SDS011;5707;49.588;12.148;2023-05-17T10:19:55;5.07;;;2.30;;
11303;SDS011;5707;49.588;12.148;2023-05-17T10:22:21;3.97;;;1.95;;
11303;SDS011;5707;49.588;12.148;2023-05-17T10:24:47;5.25;;;2.45;;
11303;SDS011;5707;49.588;12.148;2023-05-17T10:27:15;2.58;;;2.05;;
11303;SDS011;5707;49.588;12.148;2023-05-17T10:29:41;2.88;;;1.92;;
11303;SDS011;5707;49.588;12.148;2023-05-17T10:32:08;2.95;;;1.80;;
11303;SDS011;5707;49.588;12.148;2023-05-17T10:34:37;3.28;;;1.95;;
11303;SDS011;5707;49.588;12.148;2023-05-17T10:37:03;13.27;;;1.88;;
11303;SDS011;5707;49.588;12.148;2023-05-17T10:39:30;4.03;;;1.98;;
11303;SDS011;5707;49.588;12.148;2023-05-17T10:41:58;2.60;;;2.10;;
11303;SDS011;5707;49.588;12.148;2023-05-17T10:44:26;3.47;;;2.05;;
11303;SDS011;5707;49.588;12.148;2023-05-17T10:46:54;6.28;;;2.72;;
11303;SDS011;5707;49.588;12.148;2023-05-17T10:49:25;4.22;;;2.25;;
11303;SDS011;5707;49.588;12.148;2023-05-17T10:51:53;3.90;;;2.05;;
11303;SDS011;5707;49.588;12.148;2023-05-17T10:54:21;2.33;;;1.80;;
11303;SDS011;5707;49.588;12.148;2023-05-17T10:57:00;2.58;;;1.80;;
11303;SDS011;5707;49.588;12.148;2023-05-17T10:59:29;3.35;;;2.20;;
11303;SDS011;5707;49.588;12.148;2023-05-17T11:02:03;2.35;;;1.80;;
11303;SDS011;5707;49.588;12.148;2023-05-17T11:04:36;2.65;;;2.25;;
11303;SDS011;5707;49.588;12.148;2023-05-17T11:07:36;2.60;;;1.90;;
11303;SDS011;5707;49.588;12.148;2023-05-17T11:10:10;2.10;;;1.90;;
11303;SDS011;5707;49.588;12.148;2023-05-17T11:15:05;2.30;;;1.88;;
11303;SDS011;5707;49.588;12.148;2023-05-17T11:20:07;2.67;;;2.00;;
11303;SDS011;5707;49.588;12.148;2023-05-17T11:22:53;3.58;;;1.77;;
11303;SDS011;5707;49.588;12.148;2023-05-17T11:25:23;2.92;;;2.10;;
11303;SDS011;5707;49.588;12.148;2023-05-17T11:27:52;3.47;;;2.38;;
11303;SDS011;5707;49.588;12.148;2023-05-17T11:30:25;3.05;;;1.80;;
11303;SDS011;5707;49.588;12.148;2023-05-17T11:33:02;2.75;;;1.80;;
11303;SDS011;5707;49.588;12.148;2023-05-17T11:35:36;3.28;;;2.47;;
11303;SDS011;5707;49.588;12.148;2023-05-17T11:38:16;4.57;;;2.75;;
11303;SDS011;5707;49.588;12.148;2023-05-17T11:40:43;3.65;;;1.73;;
11303;SDS011;5707;49.588;12.148;2023-05-17T11:43:10;4.22;;;2.28;;
11303;SDS011;5707;49.588;12.148;2023-05-17T11:45:41;3.72;;;1.88;;
11303;SDS011;5707;49.588;12.148;2023-05-17T11:48:07;3.00;;;2.13;;
11303;SDS011;5707;49.588;12.148;2023-05-17T11:50:34;3.47;;;2.42;;
11303;SDS011;5707;49.588;12.148;2023-05-17T11:53:01;2.92;;;2.10;;
11303;SDS011;5707;49.588;12.148;2023-05-17T11:55:41;3.05;;;1.60;;
11303;SDS011;5707;49.588;12.148;2023-05-17T11:58:17;3.60;;;1.65;;
11303;SDS011;5707;49.588;12.148;2023-05-17T12:00:53;4.68;;;2.15;;
11303;SDS011;5707;49.588;12.148;2023-05-17T12:03:21;2.85;;;1.83;;
11303;SDS011;5707;49.588;12.148;2023-05-17T12:05:52;4.05;;;1.90;;
11303;SDS011;5707;49.588;12.148;2023-05-17T12:08:26;2.72;;;1.95;;
11303;SDS011;5707;49.588;12.148;2023-05-17T12:10:52;3.53;;;1.83;;
11303;SDS011;5707;49.588;12.148;2023-05-17T12:13:20;6.13;;;2.05;;
11303;SDS011;5707;49.588;12.148;2023-05-17T12:15:50;3.80;;;2.40;;
11303;SDS011;5707;49.588;12.148;2023-05-17T12:18:18;3.83;;;1.80;;
11303;SDS011;5707;49.588;12.148;2023-05-17T12:20:54;3.33;;;1.80;;
11303;SDS011;5707;49.588;12.148;2023-05-17T12:23:30;4.28;;;2.28;;
11303;SDS011;5707;49.588;12.148;2023-05-17T12:26:04;2.38;;;1.77;;
11303;SDS011;5707;49.588;12.148;2023-05-17T12:28:31;2.53;;;1.92;;
11303;SDS011;5707;49.588;12.148;2023-05-17T12:30:58;2.60;;;1.90;;
11303;SDS011;5707;49.588;12.148;2023-05-17T12:33:30;3.53;;;1.80;;
11303;SDS011;5707;49.588;12.148;2023-05-17T12:36:00;3.00;;;2.00;;
11303;SDS011;5707;49.588;12.148;2023-05-17T12:38:28;2.67;;;1.92;;
11303;SDS011;5707;49.588;12.148;2023-05-17T12:40:57;4.00;;;2.17;;
11303;SDS011;5707;49.588;12.148;2023-05-17T12:43:28;3.50;;;2.10;;
11303;SDS011;5707;49.588;12.148;2023-05-17T12:46:01;2.92;;;2.35;;
11303;SDS011;5707;49.588;12.148;2023-05-17T12:48:28;3.83;;;2.28;;
11303;SDS011;5707;49.588;12.148;2023-05-17T12:50:53;4.53;;;2.00;;
11303;SDS011;5707;49.588;12.148;2023-05-17T12:53:20;3.38;;;2.05;;
11303;SDS011;5707;49.588;12.148;2023-05-17T12:55:47;3.55;;;2.20;;
11303;SDS011;5707;49.588;12.148;2023-05-17T12:58:13;2.28;;;1.92;;
11303;SDS011;5707;49.588;12.148;2023-05-17T13:00:39;3.42;;;2.30;;
11303;SDS011;5707;49.588;12.148;2023-05-17T13:03:08;3.28;;;1.90;;
11303;SDS011;5707;49.588;12.148;2023-05-17T13:05:34;2.95;;;2.17;;
11303;SDS011;5707;49.588;12.148;2023-05-17T13:08:18;3.33;;;2.10;;
11303;SDS011;5707;49.588;12.148;2023-05-17T13:10:48;2.75;;;2.05;;
11303;SDS011;5707;49.588;12.148;2023-05-17T13:13:17;3.92;;;1.77;;
11303;SDS011;5707;49.588;12.148;2023-05-17T13:15:45;4.07;;;1.98;;
11303;SDS011;5707;49.588;12.148;2023-05-17T13:18:12;1.92;;;1.60;;
11303;SDS011;5707;49.588;12.148;2023-05-17T13:20:41;2.78;;;2.00;;
11303;SDS011;5707;49.588;12.148;2023-05-17T13:23:08;2.28;;;1.75;;
11303;SDS011;5707;49.588;12.148;2023-05-17T13:25:33;4.50;;;1.65;;
11303;SDS011;5707;49.588;12.148;2023-05-17T13:28:00;3.58;;;2.08;;
11303;SDS011;5707;49.588;12.148;2023-05-17T13:30:26;2.05;;;1.85;;
11303;SDS011;5707;49.588;12.148;2023-05-17T13:32:52;2.45;;;2.03;;
11303;SDS011;5707;49.588;12.148;2023-05-17T13:35:18;2.38;;;2.08;;
11303;SDS011;5707;49.588;12.148;2023-05-17T13:37:44;4.47;;;2.50;;
11303;SDS011;5707;49.588;12.148;2023-05-17T13:40:09;2.63;;;2.30;;
11303;SDS011;5707;49.588;12.148;2023-05-17T13:42:35;4.35;;;1.98;;
11303;SDS011;5707;49.588;12.148;2023-05-17T13:45:01;4.10;;;2.00;;
11303;SDS011;5707;49.588;12.148;2023-05-17T13:47:27;1.80;;;1.70;;
11303;SDS011;5707;49.588;12.148;2023-05-17T13:49:54;5.65;;;3.30;;
11303;SDS011;5707;49.588;12.148;2023-05-17T13:52:19;4.78;;;2.13;;
11303;SDS011;5707;49.588;12.148;2023-05-17T13:54:46;3.22;;;1.85;;
11303;SDS011;5707;49.588;12.148;2023-05-17T13:57:12;3.75;;;2.13;;
11303;SDS011;5707;49.588;12.148;2023-05-17T13:59:38;6.18;;;2.47;;
11303;SDS011;5707;49.588;12.148;2023-05-17T14:02:03;4.35;;;2.38;;
11303;SDS011;5707;49.588;12.148;2023-05-17T14:04:29;2.85;;;1.83;;
11303;SDS011;5707;49.588;12.148;2023-05-17T14:06:55;4.50;;;2.20;;
11303;SDS011;5707;49.588;12.148;2023-05-17T14:09:20;2.90;;;2.25;;
11303;SDS011;5707;49.588;12.148;2023-05-17T14:11:46;2.65;;;1.88;;
11303;SDS011;5707;49.588;12.148;2023-05-17T14:14:11;5.32;;;2.10;;
11303;SDS011;5707;49.588;12.148;2023-05-17T14:16:37;3.45;;;2.05;;
11303;SDS011;5707;49.588;12.148;2023-05-17T14:19:03;2.05;;;1.83;;
11303;SDS011;5707;49.588;12.148;2023-05-17T14:21:28;3.47;;;2.20;;
11303;SDS011;5707;49.588;12.148;2023-05-17T14:23:54;3.38;;;2.10;;
11303;SDS011;5707;49.588;12.148;2023-05-17T14:26:19;3.83;;;2.22;;
11303;SDS011;5707;49.588;12.148;2023-05-17T14:28:46;2.15;;;1.90;;
11303;SDS011;5707;49.588;12.148;2023-05-17T14:31:11;5.15;;;2.45;;
11303;SDS011;5707;49.588;12.148;2023-05-17T14:33:37;2.20;;;1.75;;
11303;SDS011;5707;49.588;12.148;2023-05-17T14:36:02;3.30;;;1.90;;
11303;SDS011;5707;49.588;12.148;2023-05-17T14:38:28;2.30;;;2.10;;
11303;SDS011;5707;49.588;12.148;2023-05-17T14:40:54;3.50;;;1.90;;
11303;SDS011;5707;49.588;12.148;2023-05-17T14:43:20;2.85;;;2.00;;
11303;SDS011;5707;49.588;12.148;2023-05-17T14:45:45;3.28;;;2.10;;
11303;SDS011;5707;49.588;12.148;2023-05-17T14:48:11;8.43;;;2.33;;
11303;SDS011;5707;49.588;12.148;2023-05-17T14:50:36;3.17;;;1.75;;
11303;SDS011;5707;49.588;12.148;2023-05-17T14:53:02;2.90;;;2.05;;
11303;SDS011;5707;49.588;12.148;2023-05-17T14:55:28;4.20;;;2.25;;
11303;SDS011;5707;49.588;12.148;2023-05-17T14:57:54;2.97;;;2.22;;
11303;SDS011;5707;49.588;12.148;2023-05-17T15:00:21;2.80;;;2.10;;
11303;SDS011;5707;49.588;12.148;2023-05-17T15:02:48;3.55;;;1.83;;
11303;SDS011;5707;49.588;12.148;2023-05-17T15:05:14;2.53;;;2.03;;